createdAt,value
2022-11-29T00:02:00.342Z,1.00
2022-11-29T00:04:32.317Z,1.00
2022-11-29T00:07:01.766Z,1.00
2022-11-29T00:09:31.257Z,50.30
2022-11-29T00:12:15.847Z,34.10
2022-11-29T00:14:45.621Z,1.00
2022-11-29T00:17:15.957Z,1.00
2022-11-29T00:19:46.094Z,99.90
2022-11-29T00:22:15.661Z,99.90
2022-11-29T00:24:45.673Z,99.90
2022-11-29T00:27:14.309Z,1.00
2022-11-29T00:29:44.115Z,35.20
2022-11-29T00:32:13.913Z,99.90
2022-11-29T00:34:42.774Z,1.00
2022-11-29T00:37:11.302Z,1.00
2022-11-29T00:39:41.215Z,99.90
2022-11-29T00:42:09.532Z,99.90
2022-11-29T00:44:38.028Z,1.00
2022-11-29T00:47:07.661Z,24.10
2022-11-29T00:49:36.098Z,99.90
2022-11-29T00:52:04.616Z,1.00
2022-11-29T00:54:34.532Z,1.00
2022-11-29T00:57:03.094Z,1.00
2022-11-29T00:59:32.353Z,93.00
2022-11-29T01:02:00.930Z,91.90
2022-11-29T01:04:30.631Z,99.90
2022-11-29T01:07:00.414Z,99.90
2022-11-29T01:09:28.846Z,98.60
2022-11-29T01:11:58.291Z,99.90
2022-11-29T01:14:27.831Z,98.20
2022-11-29T01:16:57.268Z,99.90
2022-11-29T01:19:25.545Z,81.90
2022-11-29T01:21:55.610Z,43.40
2022-11-29T01:24:25.371Z,15.10
2022-11-29T01:26:55.067Z,50.80
2022-11-29T01:29:24.883Z,44.70
2022-11-29T01:31:53.897Z,42.70
2022-11-29T01:34:22.202Z,64.70
2022-11-29T01:36:50.651Z,77.30
2022-11-29T01:39:20.428Z,84.50
2022-11-29T01:41:48.745Z,72.50
2022-11-29T01:44:54.192Z,99.90
2022-11-29T01:47:26.015Z,92.80
2022-11-29T01:49:54.443Z,24.70
2022-11-29T01:52:25.504Z,1.00
2022-11-29T01:55:01.610Z,1.00
2022-11-29T01:57:32.486Z,1.00
2022-11-29T02:00:08.682Z,1.00
2022-11-29T02:02:49.272Z,1.00
2022-11-29T02:05:19.830Z,1.00
2022-11-29T02:07:54.386Z,99.90
2022-11-29T02:10:27.261Z,84.30
2022-11-29T02:13:02.041Z,1.00
2022-11-29T02:15:45.313Z,1.00
2022-11-29T02:18:22.763Z,1.00
2022-11-29T02:21:23.015Z,99.90
2022-11-29T02:24:14.959Z,1.00
2022-11-29T02:27:08.116Z,1.00
2022-11-29T02:30:05.748Z,99.90
2022-11-29T02:33:20.602Z,99.90
2022-11-29T02:36:32.649Z,39.40
2022-11-29T02:39:42.785Z,1.00
2022-11-29T02:42:56.046Z,99.90
2022-11-29T02:45:54.800Z,99.90
2022-11-29T02:48:52.133Z,1.00
2022-11-29T02:51:29.214Z,99.90
2022-11-29T02:54:05.628Z,99.90
2022-11-29T02:56:43.675Z,1.00
2022-11-29T02:59:21.901Z,1.00
2022-11-29T03:02:03.212Z,99.90
2022-11-29T03:04:53.742Z,99.90
2022-11-29T03:07:31.501Z,44.60
2022-11-29T03:10:06.316Z,1.00
2022-11-29T03:12:41.236Z,1.00
2022-11-29T03:15:23.207Z,1.00
2022-11-29T03:18:03.025Z,1.00
2022-11-29T03:20:42.676Z,99.90
2022-11-29T03:23:23.844Z,99.90
2022-11-29T03:26:03.542Z,92.50
2022-11-29T03:28:44.412Z,1.00
2022-11-29T03:31:20.870Z,1.00
2022-11-29T03:34:00.810Z,99.90
2022-11-29T03:36:42.797Z,99.90
2022-11-29T03:39:20.804Z,99.90
2022-11-29T03:41:59.055Z,99.90
2022-11-29T03:44:35.204Z,99.90
2022-11-29T03:47:08.718Z,48.20
2022-11-29T03:49:45.054Z,1.00
2022-11-29T03:52:21.281Z,1.00
2022-11-29T03:55:06.817Z,1.00
2022-11-29T03:57:42.204Z,99.90
2022-11-29T04:00:13.240Z,99.90
2022-11-29T04:03:32.887Z,99.90
2022-11-29T04:06:24.947Z,1.00
2022-11-29T04:09:32.589Z,1.00
2022-11-29T04:12:57.175Z,1.00
2022-11-29T04:16:03.002Z,1.00
2022-11-29T04:19:23.531Z,99.90
2022-11-29T04:22:23.252Z,1.00
2022-11-29T04:25:24.401Z,1.00
2022-11-29T04:28:20.074Z,1.00
2022-11-29T04:31:03.542Z,1.00
2022-11-29T04:34:43.729Z,99.90
2022-11-29T04:37:51.601Z,99.90
2022-11-29T04:41:04.219Z,1.00
2022-11-29T04:44:02.882Z,1.00
2022-11-29T04:46:59.033Z,99.90
2022-11-29T04:49:56.745Z,99.90
2022-11-29T04:52:41.590Z,99.90
2022-11-29T04:55:27.638Z,1.00
2022-11-29T04:58:05.574Z,1.00
2022-11-29T05:00:40.931Z,1.00
2022-11-29T05:03:15.814Z,1.00
2022-11-29T05:05:49.749Z,1.00
2022-11-29T05:08:26.426Z,1.00
2022-11-29T05:11:02.906Z,1.00
2022-11-29T05:13:40.397Z,1.00
2022-11-29T05:16:17.433Z,1.00
2022-11-29T05:19:18.230Z,1.00
2022-11-29T05:21:56.664Z,1.00
2022-11-29T05:24:37.166Z,1.00
2022-11-29T05:27:13.931Z,1.00
2022-11-29T05:29:51.231Z,1.00
2022-11-29T05:32:33.721Z,1.00
2022-11-29T05:35:50.863Z,1.00
2022-11-29T05:41:59.599Z,99.90
2022-11-29T05:44:35.334Z,99.90
2022-11-29T05:47:19.458Z,99.90
2022-11-29T05:50:32.247Z,99.90
2022-11-29T05:53:12.896Z,99.90
2022-11-29T05:55:49.819Z,99.90
2022-11-29T05:58:30.706Z,99.90
2022-11-29T06:01:08.410Z,99.90
2022-11-29T06:03:46.926Z,99.90
2022-11-29T06:06:32.805Z,99.90
2022-11-29T06:09:11.399Z,99.90
2022-11-29T06:11:45.831Z,99.90
2022-11-29T06:14:34.085Z,99.90
2022-11-29T06:17:27.375Z,99.90
2022-11-29T06:20:11.369Z,99.90
2022-11-29T06:23:14.137Z,99.90
2022-11-29T06:26:00.639Z,99.90
2022-11-29T06:29:03.391Z,99.90
2022-11-29T06:31:41.363Z,99.90
2022-11-29T06:34:47.609Z,99.90
2022-11-29T06:37:38.034Z,99.90
2022-11-29T06:40:51.500Z,99.90
2022-11-29T06:43:48.216Z,99.90
2022-11-29T06:46:54.106Z,99.90
2022-11-29T06:57:23.237Z,99.90
2022-11-29T07:00:05.077Z,99.90
2022-11-29T07:03:08.777Z,99.90
2022-11-29T07:05:40.851Z,99.90
2022-11-29T07:08:15.444Z,99.90
2022-11-29T07:10:44.886Z,99.90
2022-11-29T07:13:15.105Z,99.90
2022-11-29T07:16:01.872Z,99.90
2022-11-29T07:18:40.500Z,99.90
2022-11-29T07:25:12.518Z,99.90
2022-11-29T07:28:04.133Z,99.90
2022-11-29T07:30:44.008Z,99.90
2022-11-29T07:33:19.503Z,99.90
2022-11-29T07:35:58.022Z,99.90
2022-11-29T07:38:36.173Z,99.90
2022-11-29T07:41:13.936Z,99.90
2022-11-29T07:43:52.325Z,99.90
2022-11-29T07:46:25.649Z,99.90
2022-11-29T07:48:53.941Z,99.90
2022-11-29T07:51:22.457Z,99.90
2022-11-29T07:54:21.063Z,99.90
2022-11-29T07:57:12.033Z,99.90
2022-11-29T07:59:56.549Z,99.90
2022-11-29T08:02:33.383Z,99.90
2022-11-29T08:05:10.679Z,99.90
2022-11-29T08:08:06.306Z,99.90
2022-11-29T08:11:01.450Z,99.90
2022-11-29T08:13:32.343Z,99.90
2022-11-29T08:16:05.368Z,99.90
2022-11-29T08:18:41.456Z,99.90
2022-11-29T08:21:15.207Z,99.90
2022-11-29T08:26:09.561Z,99.90
2022-11-29T08:28:55.934Z,99.90
2022-11-29T08:31:47.010Z,99.90
2022-11-29T08:34:21.590Z,98.20
2022-11-29T08:36:56.592Z,95.10
2022-11-29T08:43:38.894Z,93.20
2022-11-29T08:46:18.758Z,68.30
2022-11-29T08:48:49.911Z,44.30
2022-11-29T08:51:20.289Z,31.60
2022-11-29T08:53:54.271Z,37.60
2022-11-29T08:57:16.615Z,45.60
2022-11-29T08:59:12.599Z,36.30
2022-11-29T09:05:02.923Z,20.00
2022-11-29T09:07:34.140Z,13.70
2022-11-29T09:10:20.885Z,11.80
2022-11-29T09:12:56.942Z,1.00
2022-11-29T09:15:31.977Z,1.00
2022-11-29T09:18:10.716Z,2.40
2022-11-29T09:20:45.829Z,1.00
2022-11-29T09:23:15.938Z,1.00
2022-11-29T09:25:49.833Z,1.00
2022-11-29T09:28:23.870Z,1.00
2022-11-29T09:31:03.157Z,1.00
2022-11-29T09:33:33.032Z,10.70
2022-11-29T09:36:06.352Z,1.00
2022-11-29T09:38:41.212Z,1.50
2022-11-29T09:41:30.936Z,8.30
2022-11-29T09:44:15.824Z,4.30
2022-11-29T09:46:58.791Z,42.30
2022-11-29T09:56:32.306Z,52.70
2022-11-29T09:59:15.294Z,39.80
2022-11-29T10:01:54.372Z,42.50
2022-11-29T10:04:30.785Z,42.50
2022-11-29T10:07:28.855Z,34.90
2022-11-29T10:10:04.272Z,37.70
2022-11-29T10:12:41.370Z,11.90
2022-11-29T10:15:19.739Z,14.50
2022-11-29T10:17:56.173Z,19.80
2022-11-29T10:20:39.287Z,30.30
2022-11-29T10:23:24.792Z,38.10
2022-11-29T10:25:57.919Z,51.40
2022-11-29T10:28:39.983Z,41.50
2022-11-29T10:31:24.794Z,36.20
2022-11-29T10:38:29.919Z,77.00
2022-11-29T10:41:24.720Z,78.30
2022-11-29T10:44:31.858Z,93.80
2022-11-29T10:47:10.963Z,99.90
2022-11-29T10:49:44.010Z,99.90
2022-11-29T10:52:22.185Z,99.90
2022-11-29T10:54:55.878Z,99.90
2022-11-29T10:57:47.666Z,99.90
2022-11-29T11:00:19.395Z,99.90
2022-11-29T11:02:50.015Z,98.70
2022-11-29T11:05:27.636Z,99.90
2022-11-29T11:08:08.005Z,99.90
2022-11-29T11:10:53.038Z,80.10
2022-11-29T11:13:39.057Z,79.70
2022-11-29T11:16:34.275Z,93.30
2022-11-29T11:19:45.800Z,97.80
2022-11-29T11:22:32.759Z,97.80
2022-11-29T11:25:11.478Z,99.90
2022-11-29T11:27:52.191Z,99.90
2022-11-29T11:30:28.926Z,99.90
2022-11-29T11:33:23.132Z,99.90
2022-11-29T11:36:09.721Z,99.90
2022-11-29T11:39:05.859Z,99.90
2022-11-29T11:41:57.827Z,99.90
2022-11-29T11:44:48.453Z,99.90
2022-11-29T11:47:23.223Z,99.90
2022-11-29T11:50:13.511Z,99.90
2022-11-29T11:52:50.579Z,99.90
2022-11-29T11:59:54.149Z,99.90
2022-11-29T12:02:50.537Z,99.90
2022-11-29T12:09:07.867Z,99.90
2022-11-29T12:15:20.162Z,99.90
2022-11-29T12:18:33.496Z,99.90
2022-11-29T12:24:29.853Z,99.90
2022-11-29T12:27:07.257Z,99.90
2022-11-29T12:29:39.908Z,99.90
2022-11-29T12:32:32.171Z,99.90
2022-11-29T12:35:44.170Z,99.90
2022-11-29T12:38:49.706Z,99.90
2022-11-29T12:41:30.752Z,99.90
2022-11-29T12:44:43.200Z,99.90
2022-11-29T12:50:42.365Z,99.90
2022-11-29T12:57:49.201Z,99.90
2022-11-29T13:00:34.841Z,99.90
2022-11-29T13:03:41.576Z,99.90
2022-11-29T13:06:59.512Z,99.90
2022-11-29T13:10:23.474Z,99.90
2022-11-29T13:13:12.474Z,99.90
2022-11-29T13:16:11.421Z,99.90
2022-11-29T13:18:50.453Z,99.90
2022-11-29T13:21:38.469Z,99.90
2022-11-29T13:24:14.397Z,99.90
2022-11-29T13:26:48.343Z,99.90
2022-11-29T13:29:20.730Z,99.90
2022-11-29T13:32:14.624Z,99.90
2022-11-29T13:35:19.918Z,99.90
2022-11-29T13:38:08.901Z,99.90
2022-11-29T13:40:55.053Z,99.90
2022-11-29T13:44:14.442Z,99.90
2022-11-29T13:47:25.513Z,99.90
2022-11-29T13:53:49.286Z,99.90
2022-11-29T13:56:58.862Z,99.90
2022-11-29T13:59:44.156Z,99.90
2022-11-29T14:06:22.801Z,99.90
2022-11-29T14:09:26.034Z,99.90
2022-11-29T14:12:05.788Z,99.90
2022-11-29T14:15:07.701Z,99.90
2022-11-29T14:18:08.794Z,99.90
2022-11-29T14:20:44.396Z,99.90
2022-11-29T14:24:06.745Z,99.90
2022-11-29T14:29:58.699Z,99.90
2022-11-29T14:32:33.026Z,99.90
2022-11-29T14:35:14.639Z,99.90
2022-11-29T14:38:01.740Z,99.90
2022-11-29T14:40:48.347Z,99.90
2022-11-29T14:43:28.804Z,99.90
2022-11-29T14:46:13.772Z,99.90
2022-11-29T14:48:48.191Z,99.90
2022-11-29T14:51:22.624Z,99.90
2022-11-29T14:54:09.323Z,99.90
2022-11-29T14:56:53.250Z,92.60
2022-11-29T14:59:54.574Z,97.50
2022-11-29T15:02:47.999Z,99.90
2022-11-29T15:05:38.764Z,99.90
2022-11-29T15:09:02.835Z,99.90
2022-11-29T15:12:21.457Z,99.90
2022-11-29T15:15:12.452Z,99.90
2022-11-29T15:18:08.758Z,99.90
2022-11-29T15:21:38.478Z,99.90
2022-11-29T15:24:28.152Z,99.90
2022-11-29T15:27:24.097Z,99.90
2022-11-29T15:29:56.318Z,99.90
2022-11-29T15:36:06.717Z,99.90
2022-11-29T15:38:56.899Z,99.90
2022-11-29T15:41:49.035Z,99.90
2022-11-29T15:44:24.122Z,99.90
2022-11-29T15:47:43.675Z,99.90
2022-11-29T15:50:39.563Z,99.90
2022-11-29T15:53:32.460Z,99.90
2022-11-29T16:02:35.397Z,99.90
2022-11-29T16:05:41.743Z,99.90
2022-11-29T16:08:40.419Z,99.90
2022-11-29T16:11:36.048Z,99.90
2022-11-29T16:18:09.151Z,99.90
2022-11-29T16:20:47.110Z,99.90
2022-11-29T16:23:27.014Z,99.90
2022-11-29T16:26:03.886Z,99.90
2022-11-29T16:28:38.793Z,99.90
2022-11-29T16:34:55.801Z,99.90
2022-11-29T16:37:55.716Z,99.90
2022-11-29T16:41:01.879Z,99.90
2022-11-29T16:44:00.476Z,99.90
2022-11-29T16:46:49.609Z,1.00
2022-11-29T16:49:54.648Z,1.00
2022-11-29T16:52:34.930Z,99.90
2022-11-29T16:55:05.526Z,99.90
2022-11-29T16:57:44.807Z,99.90
2022-11-29T17:00:47.585Z,99.90
2022-11-29T17:03:47.573Z,99.90
2022-11-29T17:06:27.357Z,99.90
2022-11-29T17:09:22.122Z,99.90
2022-11-29T17:12:05.283Z,1.00
2022-11-29T17:14:56.278Z,99.90
2022-11-29T17:17:31.330Z,99.90
2022-11-29T17:20:01.571Z,1.00
2022-11-29T17:22:29.992Z,20.80
2022-11-29T17:25:00.829Z,99.90
2022-11-29T17:27:33.159Z,99.90
2022-11-29T17:30:03.566Z,99.90
2022-11-29T17:32:38.760Z,99.90
2022-11-29T17:35:37.937Z,99.90
2022-11-29T17:42:06.552Z,99.90
2022-11-29T17:44:36.446Z,99.90
2022-11-29T17:47:08.442Z,99.90
2022-11-29T17:49:36.972Z,99.90
2022-11-29T17:52:07.047Z,99.90
2022-11-29T17:54:40.927Z,99.90
2022-11-29T17:57:11.177Z,99.90
2022-11-29T18:03:18.983Z,34.20
2022-11-29T18:05:47.329Z,1.00
2022-11-29T18:08:48.694Z,1.00
2022-11-29T18:11:19.168Z,1.00
2022-11-29T18:14:02.447Z,1.00
2022-11-29T18:16:46.949Z,1.00
2022-11-29T18:19:22.225Z,1.00
2022-11-29T18:22:04.536Z,1.00
2022-11-29T18:24:38.142Z,99.90
2022-11-29T18:27:10.004Z,81.40
2022-11-29T18:29:53.950Z,1.00
2022-11-29T18:32:23.507Z,1.00
2022-11-29T18:34:52.060Z,99.90
2022-11-29T18:37:33.923Z,99.90
2022-11-29T18:40:13.504Z,1.00
2022-11-29T18:42:41.969Z,1.00
2022-11-29T18:45:12.537Z,99.90
2022-11-29T18:47:40.836Z,1.00
2022-11-29T18:50:25.274Z,99.90
2022-11-29T18:52:55.830Z,32.40
2022-11-29T18:55:25.413Z,1.00
2022-11-29T18:58:07.001Z,99.90
2022-11-29T19:00:37.904Z,1.00
2022-11-29T19:03:07.640Z,99.90
2022-11-29T19:05:45.098Z,1.00
2022-11-29T19:08:14.954Z,99.90
2022-11-29T19:10:45.480Z,1.00
2022-11-29T19:13:16.518Z,99.90
2022-11-29T19:16:13.656Z,1.00
2022-11-29T19:18:53.953Z,1.00
2022-11-29T19:21:25.286Z,1.00
2022-11-29T19:23:55.324Z,1.00
2022-11-29T19:26:28.399Z,37.10
2022-11-29T19:28:58.404Z,1.00
2022-11-29T19:31:36.037Z,1.00
2022-11-29T19:34:13.298Z,99.90
2022-11-29T19:36:44.508Z,13.80
2022-11-29T19:39:23.362Z,1.00
2022-11-29T19:41:51.948Z,1.00
2022-11-29T19:45:14.926Z,99.90
2022-11-29T19:47:31.178Z,99.90
2022-11-29T19:50:02.556Z,1.00
2022-11-29T19:52:34.139Z,1.00
2022-11-29T19:55:02.519Z,1.00
2022-11-29T19:57:43.845Z,99.90
2022-11-29T20:00:15.229Z,92.70
2022-11-29T20:02:47.253Z,1.00
2022-11-29T20:05:17.077Z,99.90
2022-11-29T20:07:46.258Z,99.90
2022-11-29T20:10:24.236Z,56.00
2022-11-29T20:12:53.555Z,11.40
2022-11-29T20:15:23.319Z,1.00
2022-11-29T20:17:54.762Z,1.00
2022-11-29T20:20:25.908Z,1.00
2022-11-29T20:22:57.171Z,1.00
2022-11-29T20:25:25.514Z,1.00
2022-11-29T20:27:54.035Z,1.00
2022-11-29T20:30:26.137Z,99.90
2022-11-29T20:32:58.528Z,1.00
2022-11-29T20:35:29.283Z,99.90
2022-11-29T20:38:15.455Z,99.90
2022-11-29T20:41:02.738Z,99.90
2022-11-29T20:43:45.327Z,99.90
2022-11-29T20:46:15.557Z,99.90
2022-11-29T20:51:12.425Z,99.90
2022-11-29T20:53:43.696Z,99.90
2022-11-29T20:56:13.970Z,99.90
2022-11-29T20:58:43.722Z,99.90
2022-11-29T21:01:13.201Z,99.90
2022-11-29T21:03:51.388Z,99.90
2022-11-29T21:06:25.488Z,99.90
2022-11-29T21:08:55.692Z,99.90
2022-11-29T21:11:25.439Z,99.90
2022-11-29T21:13:55.590Z,99.90
2022-11-29T21:16:31.629Z,99.90
2022-11-29T21:19:06.190Z,99.90
2022-11-29T21:21:52.191Z,99.90
2022-11-29T21:24:36.654Z,59.60
2022-11-29T21:27:06.079Z,66.00
2022-11-29T21:29:37.559Z,52.50
2022-11-29T21:32:06.720Z,19.50
2022-11-29T21:34:35.388Z,8.20
2022-11-29T21:37:10.348Z,26.70
2022-11-29T21:39:38.685Z,1.00
2022-11-29T21:42:07.830Z,1.00
2022-11-29T21:44:38.566Z,1.00
2022-11-29T21:47:09.191Z,1.00
2022-11-29T21:49:38.604Z,1.00
2022-11-29T21:52:09.266Z,1.00
2022-11-29T21:54:39.344Z,1.00
2022-11-29T21:57:09.276Z,1.00
2022-11-29T21:59:42.273Z,1.00
2022-11-29T22:02:15.000Z,1.00
2022-11-29T22:04:45.474Z,1.00
2022-11-29T22:07:16.748Z,1.00
2022-11-29T22:09:46.304Z,1.00
2022-11-29T22:12:33.073Z,1.00
2022-11-29T22:15:02.933Z,1.00
2022-11-29T22:17:31.231Z,99.90
2022-11-29T22:19:59.740Z,99.90
2022-11-29T22:22:31.192Z,10.30
2022-11-29T22:25:00.717Z,45.60
2022-11-29T22:27:29.186Z,1.00
2022-11-29T22:29:58.664Z,1.00
2022-11-29T22:32:28.019Z,1.00
2022-11-29T22:34:57.500Z,1.00
2022-11-29T22:37:29.711Z,1.00
2022-11-29T22:39:58.136Z,1.00
2022-11-29T22:42:26.610Z,1.00
2022-11-29T22:44:56.109Z,1.00
2022-11-29T22:47:25.644Z,1.00
2022-11-29T22:49:56.454Z,1.00
2022-11-29T22:52:28.864Z,1.00
2022-11-29T22:55:05.068Z,99.90
2022-11-29T22:57:33.862Z,99.90
2022-11-29T23:00:03.284Z,99.90
2022-11-29T23:02:32.181Z,99.90
2022-11-29T23:05:04.425Z,99.90
2022-11-29T23:07:32.681Z,99.90
2022-11-29T23:10:05.189Z,99.90
2022-11-29T23:12:33.366Z,99.90
2022-11-29T23:15:03.395Z,99.90
2022-11-29T23:17:34.198Z,99.90
2022-11-29T23:20:04.869Z,99.90
2022-11-29T23:22:33.178Z,99.90
2022-11-29T23:25:04.211Z,99.90
2022-11-29T23:27:32.382Z,99.90
2022-11-29T23:30:00.924Z,99.90
2022-11-29T23:32:29.425Z,1.00
2022-11-29T23:34:59.143Z,1.00
2022-11-29T23:37:27.605Z,1.00
2022-11-29T23:39:55.873Z,99.90
2022-11-29T23:42:25.688Z,99.90
2022-11-29T23:44:55.292Z,99.90
2022-11-29T23:47:24.123Z,99.90
2022-11-29T23:49:52.309Z,99.90
2022-11-29T23:52:20.767Z,99.90
2022-11-29T23:54:50.986Z,99.90
2022-11-29T23:57:21.055Z,99.90
2022-11-29T23:59:52.120Z,99.90
